sensor_id;sensor_type;location;lat;lon;timestamp;temperature;humidity
7998;DHT22;4044;49.814;7.828;2022-07-21T00:00:04;21.30;99.90
7998;DHT22;4044;49.814;7.828;2022-07-21T00:02:32;21.20;99.90
7998;DHT22;4044;49.814;7.828;2022-07-21T00:04:57;21.20;99.90
7998;DHT22;4044;49.814;7.828;2022-07-21T00:07:23;21.10;99.90
7998;DHT22;4044;49.814;7.828;2022-07-21T00:09:48;21.00;99.90
7998;DHT22;4044;49.814;7.828;2022-07-21T00:12:14;21.00;99.90
7998;DHT22;4044;49.814;7.828;2022-07-21T00:14:39;21.00;99.90
7998;DHT22;4044;49.814;7.828;2022-07-21T00:17:05;20.90;99.90
7998;DHT22;4044;49.814;7.828;2022-07-21T00:19:30;20.80;99.90
7998;DHT22;4044;49.814;7.828;2022-07-21T00:21:56;20.80;99.90
7998;DHT22;4044;49.814;7.828;2022-07-21T00:24:22;20.70;99.90
7998;DHT22;4044;49.814;7.828;2022-07-21T00:26:47;20.50;99.90
7998;DHT22;4044;49.814;7.828;2022-07-21T00:29:12;20.50;99.90
7998;DHT22;4044;49.814;7.828;2022-07-21T00:31:38;20.40;99.90
7998;DHT22;4044;49.814;7.828;2022-07-21T00:34:03;20.40;99.90
7998;DHT22;4044;49.814;7.828;2022-07-21T00:36:29;20.30;99.90
7998;DHT22;4044;49.814;7.828;2022-07-21T00:38:55;20.20;99.90
7998;DHT22;4044;49.814;7.828;2022-07-21T00:41:20;20.00;99.90
7998;DHT22;4044;49.814;7.828;2022-07-21T00:43:46;19.90;99.90
7998;DHT22;4044;49.814;7.828;2022-07-21T00:46:11;19.80;99.90
7998;DHT22;4044;49.814;7.828;2022-07-21T00:48:37;19.70;99.90
7998;DHT22;4044;49.814;7.828;2022-07-21T00:51:02;19.80;99.90
7998;DHT22;4044;49.814;7.828;2022-07-21T00:53:28;19.90;99.90
7998;DHT22;4044;49.814;7.828;2022-07-21T00:55:54;19.90;99.90
7998;DHT22;4044;49.814;7.828;2022-07-21T00:58:19;19.90;99.90
7998;DHT22;4044;49.814;7.828;2022-07-21T01:00:45;19.90;99.90
7998;DHT22;4044;49.814;7.828;2022-07-21T01:03:11;19.90;99.90
7998;DHT22;4044;49.814;7.828;2022-07-21T01:05:37;19.90;99.90
7998;DHT22;4044;49.814;7.828;2022-07-21T01:08:02;20.00;99.90
7998;DHT22;4044;49.814;7.828;2022-07-21T01:10:30;20.10;99.90
7998;DHT22;4044;49.814;7.828;2022-07-21T01:12:56;20.20;99.90
7998;DHT22;4044;49.814;7.828;2022-07-21T01:15:23;20.20;99.90
7998;DHT22;4044;49.814;7.828;2022-07-21T01:17:48;20.20;99.90
7998;DHT22;4044;49.814;7.828;2022-07-21T01:20:16;20.30;99.90
7998;DHT22;4044;49.814;7.828;2022-07-21T01:22:46;20.30;99.90
7998;DHT22;4044;49.814;7.828;2022-07-21T01:25:12;20.40;99.90
7998;DHT22;4044;49.814;7.828;2022-07-21T01:27:38;20.40;99.90
7998;DHT22;4044;49.814;7.828;2022-07-21T01:30:05;20.40;99.90
7998;DHT22;4044;49.814;7.828;2022-07-21T01:32:34;20.50;99.90
7998;DHT22;4044;49.814;7.828;2022-07-21T01:35:00;20.50;99.90
7998;DHT22;4044;49.814;7.828;2022-07-21T01:37:28;20.60;99.90
7998;DHT22;4044;49.814;7.828;2022-07-21T01:39:54;20.50;99.90
7998;DHT22;4044;49.814;7.828;2022-07-21T01:42:38;20.50;99.90
7998;DHT22;4044;49.814;7.828;2022-07-21T01:45:04;20.50;99.90
7998;DHT22;4044;49.814;7.828;2022-07-21T01:47:30;20.40;99.90
7998;DHT22;4044;49.814;7.828;2022-07-21T01:49:56;20.40;99.90
7998;DHT22;4044;49.814;7.828;2022-07-21T01:52:22;20.40;99.90
7998;DHT22;4044;49.814;7.828;2022-07-21T01:54:48;20.40;99.90
7998;DHT22;4044;49.814;7.828;2022-07-21T01:57:13;20.40;99.90
7998;DHT22;4044;49.814;7.828;2022-07-21T01:59:39;20.40;99.90
7998;DHT22;4044;49.814;7.828;2022-07-21T02:02:04;20.50;99.90
7998;DHT22;4044;49.814;7.828;2022-07-21T02:04:30;20.50;99.90
7998;DHT22;4044;49.814;7.828;2022-07-21T02:06:55;20.60;99.90
7998;DHT22;4044;49.814;7.828;2022-07-21T02:09:21;20.60;99.90
7998;DHT22;4044;49.814;7.828;2022-07-21T02:11:47;20.60;99.90
7998;DHT22;4044;49.814;7.828;2022-07-21T02:14:12;20.60;99.90
7998;DHT22;4044;49.814;7.828;2022-07-21T02:16:38;20.50;99.90
7998;DHT22;4044;49.814;7.828;2022-07-21T02:19:03;20.60;99.90
7998;DHT22;4044;49.814;7.828;2022-07-21T02:21:29;20.40;99.90
7998;DHT22;4044;49.814;7.828;2022-07-21T02:23:55;20.40;99.90
7998;DHT22;4044;49.814;7.828;2022-07-21T02:26:20;20.40;99.90
7998;DHT22;4044;49.814;7.828;2022-07-21T02:28:46;20.30;99.90
7998;DHT22;4044;49.814;7.828;2022-07-21T02:31:12;20.30;99.90
7998;DHT22;4044;49.814;7.828;2022-07-21T02:33:37;20.20;99.90
7998;DHT22;4044;49.814;7.828;2022-07-21T02:36:03;20.10;99.90
7998;DHT22;4044;49.814;7.828;2022-07-21T02:38:29;20.00;99.90
7998;DHT22;4044;49.814;7.828;2022-07-21T02:40:54;19.90;99.90
7998;DHT22;4044;49.814;7.828;2022-07-21T02:43:20;19.80;99.90
7998;DHT22;4044;49.814;7.828;2022-07-21T02:45:45;19.70;99.90
7998;DHT22;4044;49.814;7.828;2022-07-21T02:48:12;19.70;99.90
7998;DHT22;4044;49.814;7.828;2022-07-21T02:50:41;19.60;99.90
7998;DHT22;4044;49.814;7.828;2022-07-21T02:53:12;19.70;99.90
7998;DHT22;4044;49.814;7.828;2022-07-21T02:55:38;19.70;99.90
7998;DHT22;4044;49.814;7.828;2022-07-21T02:58:08;19.70;99.90
7998;DHT22;4044;49.814;7.828;2022-07-21T03:00:38;19.70;99.90
7998;DHT22;4044;49.814;7.828;2022-07-21T03:03:04;19.70;99.90
7998;DHT22;4044;49.814;7.828;2022-07-21T03:05:30;19.60;99.90
7998;DHT22;4044;49.814;7.828;2022-07-21T03:07:56;19.60;99.90
7998;DHT22;4044;49.814;7.828;2022-07-21T03:10:22;19.60;99.90
7998;DHT22;4044;49.814;7.828;2022-07-21T03:12:47;19.60;99.90
7998;DHT22;4044;49.814;7.828;2022-07-21T03:15:13;19.60;99.90
7998;DHT22;4044;49.814;7.828;2022-07-21T03:17:38;19.50;99.90
7998;DHT22;4044;49.814;7.828;2022-07-21T03:20:04;19.50;99.90
7998;DHT22;4044;49.814;7.828;2022-07-21T03:22:30;19.50;99.90
7998;DHT22;4044;49.814;7.828;2022-07-21T03:24:55;19.40;99.90
7998;DHT22;4044;49.814;7.828;2022-07-21T03:27:21;19.30;99.90
7998;DHT22;4044;49.814;7.828;2022-07-21T03:29:46;19.20;99.90
7998;DHT22;4044;49.814;7.828;2022-07-21T03:32:12;19.10;99.90
7998;DHT22;4044;49.814;7.828;2022-07-21T03:34:37;19.00;99.90
7998;DHT22;4044;49.814;7.828;2022-07-21T03:37:03;19.00;99.90
7998;DHT22;4044;49.814;7.828;2022-07-21T03:39:28;19.00;99.90
7998;DHT22;4044;49.814;7.828;2022-07-21T03:41:54;18.90;99.90
7998;DHT22;4044;49.814;7.828;2022-07-21T03:44:19;18.80;99.90
7998;DHT22;4044;49.814;7.828;2022-07-21T03:46:45;18.80;99.90
7998;DHT22;4044;49.814;7.828;2022-07-21T03:49:11;18.70;99.90
7998;DHT22;4044;49.814;7.828;2022-07-21T03:51:36;18.70;99.90
7998;DHT22;4044;49.814;7.828;2022-07-21T03:54:01;18.80;99.90
7998;DHT22;4044;49.814;7.828;2022-07-21T03:56:28;18.80;99.90
7998;DHT22;4044;49.814;7.828;2022-07-21T03:58:54;18.90;99.90
7998;DHT22;4044;49.814;7.828;2022-07-21T04:01:19;19.00;99.90
7998;DHT22;4044;49.814;7.828;2022-07-21T04:03:45;19.00;99.90
7998;DHT22;4044;49.814;7.828;2022-07-21T04:06:10;19.00;99.90
7998;DHT22;4044;49.814;7.828;2022-07-21T04:08:37;18.90;99.90
7998;DHT22;4044;49.814;7.828;2022-07-21T04:11:03;18.80;99.90
7998;DHT22;4044;49.814;7.828;2022-07-21T04:13:29;18.70;99.90
7998;DHT22;4044;49.814;7.828;2022-07-21T04:15:54;18.70;99.90
7998;DHT22;4044;49.814;7.828;2022-07-21T04:18:20;18.60;99.90
7998;DHT22;4044;49.814;7.828;2022-07-21T04:20:46;18.50;99.90
7998;DHT22;4044;49.814;7.828;2022-07-21T04:23:11;18.50;99.90
7998;DHT22;4044;49.814;7.828;2022-07-21T04:25:37;18.40;99.90
7998;DHT22;4044;49.814;7.828;2022-07-21T04:28:05;18.40;99.90
7998;DHT22;4044;49.814;7.828;2022-07-21T04:30:30;18.30;99.90
7998;DHT22;4044;49.814;7.828;2022-07-21T04:32:56;18.30;99.90
7998;DHT22;4044;49.814;7.828;2022-07-21T04:35:22;18.30;99.90
7998;DHT22;4044;49.814;7.828;2022-07-21T04:37:48;18.30;99.90
7998;DHT22;4044;49.814;7.828;2022-07-21T04:40:14;18.40;99.90
7998;DHT22;4044;49.814;7.828;2022-07-21T04:42:39;18.40;99.90
7998;DHT22;4044;49.814;7.828;2022-07-21T04:45:06;18.40;99.90
7998;DHT22;4044;49.814;7.828;2022-07-21T04:47:33;18.50;99.90
7998;DHT22;4044;49.814;7.828;2022-07-21T04:50:08;18.60;99.90
7998;DHT22;4044;49.814;7.828;2022-07-21T04:52:34;18.70;99.90
7998;DHT22;4044;49.814;7.828;2022-07-21T04:55:00;18.70;99.90
7998;DHT22;4044;49.814;7.828;2022-07-21T04:57:25;18.80;99.90
7998;DHT22;4044;49.814;7.828;2022-07-21T04:59:51;18.70;99.90
7998;DHT22;4044;49.814;7.828;2022-07-21T05:02:16;18.70;99.90
7998;DHT22;4044;49.814;7.828;2022-07-21T05:04:42;18.60;99.90
7998;DHT22;4044;49.814;7.828;2022-07-21T05:07:07;18.70;99.90
7998;DHT22;4044;49.814;7.828;2022-07-21T05:09:33;18.70;99.90
7998;DHT22;4044;49.814;7.828;2022-07-21T05:11:59;18.70;99.90
7998;DHT22;4044;49.814;7.828;2022-07-21T05:14:24;18.80;99.90
7998;DHT22;4044;49.814;7.828;2022-07-21T05:16:50;18.80;99.90
7998;DHT22;4044;49.814;7.828;2022-07-21T05:19:15;18.90;99.90
7998;DHT22;4044;49.814;7.828;2022-07-21T05:21:41;19.00;99.90
7998;DHT22;4044;49.814;7.828;2022-07-21T05:24:06;19.20;99.90
7998;DHT22;4044;49.814;7.828;2022-07-21T05:26:32;19.40;99.90
7998;DHT22;4044;49.814;7.828;2022-07-21T05:28:57;19.60;99.90
7998;DHT22;4044;49.814;7.828;2022-07-21T05:31:23;19.70;99.90
7998;DHT22;4044;49.814;7.828;2022-07-21T05:33:48;19.80;99.90
7998;DHT22;4044;49.814;7.828;2022-07-21T05:36:14;20.00;99.90
7998;DHT22;4044;49.814;7.828;2022-07-21T05:38:39;20.10;99.90
7998;DHT22;4044;49.814;7.828;2022-07-21T05:41:05;20.30;99.90
7998;DHT22;4044;49.814;7.828;2022-07-21T05:43:31;20.40;99.90
7998;DHT22;4044;49.814;7.828;2022-07-21T05:45:57;20.50;99.90
7998;DHT22;4044;49.814;7.828;2022-07-21T05:48:23;20.50;99.90
7998;DHT22;4044;49.814;7.828;2022-07-21T05:50:49;20.50;99.90
7998;DHT22;4044;49.814;7.828;2022-07-21T05:53:14;20.50;99.90
7998;DHT22;4044;49.814;7.828;2022-07-21T05:55:40;20.50;99.90
7998;DHT22;4044;49.814;7.828;2022-07-21T05:58:05;20.40;99.90
7998;DHT22;4044;49.814;7.828;2022-07-21T06:00:31;20.20;99.90
7998;DHT22;4044;49.814;7.828;2022-07-21T06:02:56;20.10;99.90
7998;DHT22;4044;49.814;7.828;2022-07-21T06:05:22;19.90;99.90
7998;DHT22;4044;49.814;7.828;2022-07-21T06:07:47;19.80;99.90
7998;DHT22;4044;49.814;7.828;2022-07-21T06:10:13;19.70;99.90
7998;DHT22;4044;49.814;7.828;2022-07-21T06:12:39;19.70;99.90
7998;DHT22;4044;49.814;7.828;2022-07-21T06:15:05;19.70;99.90
7998;DHT22;4044;49.814;7.828;2022-07-21T06:17:37;19.80;99.90
7998;DHT22;4044;49.814;7.828;2022-07-21T06:20:05;19.80;99.90
7998;DHT22;4044;49.814;7.828;2022-07-21T06:22:31;19.80;99.90
7998;DHT22;4044;49.814;7.828;2022-07-21T06:24:57;19.90;99.90
7998;DHT22;4044;49.814;7.828;2022-07-21T06:27:22;19.90;99.90
7998;DHT22;4044;49.814;7.828;2022-07-21T06:29:48;19.90;99.90
7998;DHT22;4044;49.814;7.828;2022-07-21T06:32:13;19.90;99.90
7998;DHT22;4044;49.814;7.828;2022-07-21T06:34:38;19.90;99.90
7998;DHT22;4044;49.814;7.828;2022-07-21T06:37:04;19.90;99.90
7998;DHT22;4044;49.814;7.828;2022-07-21T06:39:29;20.00;99.90
7998;DHT22;4044;49.814;7.828;2022-07-21T06:41:55;20.00;99.90
7998;DHT22;4044;49.814;7.828;2022-07-21T06:44:20;20.00;99.90
7998;DHT22;4044;49.814;7.828;2022-07-21T06:46:46;20.00;99.90
7998;DHT22;4044;49.814;7.828;2022-07-21T06:49:11;20.10;99.90
7998;DHT22;4044;49.814;7.828;2022-07-21T06:51:37;20.20;99.90
7998;DHT22;4044;49.814;7.828;2022-07-21T06:54:02;20.30;99.90
7998;DHT22;4044;49.814;7.828;2022-07-21T06:56:28;20.40;99.90
7998;DHT22;4044;49.814;7.828;2022-07-21T06:58:54;20.60;99.90
7998;DHT22;4044;49.814;7.828;2022-07-21T07:01:19;20.60;99.90
7998;DHT22;4044;49.814;7.828;2022-07-21T07:03:45;20.80;99.90
7998;DHT22;4044;49.814;7.828;2022-07-21T07:06:11;20.80;99.90
7998;DHT22;4044;49.814;7.828;2022-07-21T07:08:37;21.00;99.90
7998;DHT22;4044;49.814;7.828;2022-07-21T07:11:04;21.10;99.90
7998;DHT22;4044;49.814;7.828;2022-07-21T07:13:29;21.30;99.90
7998;DHT22;4044;49.814;7.828;2022-07-21T07:15:55;21.50;99.90
7998;DHT22;4044;49.814;7.828;2022-07-21T07:18:20;21.70;99.90
7998;DHT22;4044;49.814;7.828;2022-07-21T07:20:49;21.90;99.90
7998;DHT22;4044;49.814;7.828;2022-07-21T07:23:16;22.10;99.90
7998;DHT22;4044;49.814;7.828;2022-07-21T07:25:41;22.20;99.90
7998;DHT22;4044;49.814;7.828;2022-07-21T07:28:07;22.50;99.90
7998;DHT22;4044;49.814;7.828;2022-07-21T07:30:34;22.90;99.90
7998;DHT22;4044;49.814;7.828;2022-07-21T07:33:00;23.00;99.90
7998;DHT22;4044;49.814;7.828;2022-07-21T07:35:26;22.80;99.90
7998;DHT22;4044;49.814;7.828;2022-07-21T07:37:51;22.70;99.90
7998;DHT22;4044;49.814;7.828;2022-07-21T07:40:19;22.70;99.90
7998;DHT22;4044;49.814;7.828;2022-07-21T07:42:45;22.70;99.90
7998;DHT22;4044;49.814;7.828;2022-07-21T07:45:12;22.60;99.90
7998;DHT22;4044;49.814;7.828;2022-07-21T07:47:38;22.60;99.90
7998;DHT22;4044;49.814;7.828;2022-07-21T07:50:06;22.60;99.90
7998;DHT22;4044;49.814;7.828;2022-07-21T07:52:32;22.80;99.90
7998;DHT22;4044;49.814;7.828;2022-07-21T07:54:58;23.00;99.90
7998;DHT22;4044;49.814;7.828;2022-07-21T07:57:23;23.10;99.90
7998;DHT22;4044;49.814;7.828;2022-07-21T07:59:49;23.10;99.90
7998;DHT22;4044;49.814;7.828;2022-07-21T08:02:14;23.10;99.90
7998;DHT22;4044;49.814;7.828;2022-07-21T08:04:40;23.10;99.90
7998;DHT22;4044;49.814;7.828;2022-07-21T08:07:08;23.20;99.90
7998;DHT22;4044;49.814;7.828;2022-07-21T08:09:34;23.20;99.90
7998;DHT22;4044;49.814;7.828;2022-07-21T08:11:59;23.00;99.90
7998;DHT22;4044;49.814;7.828;2022-07-21T08:14:25;23.20;99.90
7998;DHT22;4044;49.814;7.828;2022-07-21T08:16:50;23.20;99.90
7998;DHT22;4044;49.814;7.828;2022-07-21T08:19:16;23.40;99.90
7998;DHT22;4044;49.814;7.828;2022-07-21T08:21:42;23.60;99.90
7998;DHT22;4044;49.814;7.828;2022-07-21T08:24:07;23.60;99.90
7998;DHT22;4044;49.814;7.828;2022-07-21T08:26:33;23.80;99.90
7998;DHT22;4044;49.814;7.828;2022-07-21T08:28:59;24.10;99.90
7998;DHT22;4044;49.814;7.828;2022-07-21T08:31:24;24.40;99.90
7998;DHT22;4044;49.814;7.828;2022-07-21T08:33:51;24.40;99.90
7998;DHT22;4044;49.814;7.828;2022-07-21T08:36:18;24.20;99.90
7998;DHT22;4044;49.814;7.828;2022-07-21T08:38:44;24.10;99.90
7998;DHT22;4044;49.814;7.828;2022-07-21T08:41:10;24.30;99.90
7998;DHT22;4044;49.814;7.828;2022-07-21T08:43:36;24.60;99.90
7998;DHT22;4044;49.814;7.828;2022-07-21T08:46:03;24.70;99.90
7998;DHT22;4044;49.814;7.828;2022-07-21T08:48:28;25.00;99.90
7998;DHT22;4044;49.814;7.828;2022-07-21T08:50:55;25.30;99.90
7998;DHT22;4044;49.814;7.828;2022-07-21T08:53:21;25.30;99.90
7998;DHT22;4044;49.814;7.828;2022-07-21T08:55:46;25.20;99.90
7998;DHT22;4044;49.814;7.828;2022-07-21T08:58:13;24.90;99.90
7998;DHT22;4044;49.814;7.828;2022-07-21T09:00:40;24.90;99.90
7998;DHT22;4044;49.814;7.828;2022-07-21T09:06:06;25.30;99.70
7998;DHT22;4044;49.814;7.828;2022-07-21T09:08:41;25.30;99.30
7998;DHT22;4044;49.814;7.828;2022-07-21T09:11:08;25.40;98.30
7998;DHT22;4044;49.814;7.828;2022-07-21T09:13:34;25.30;98.80
7998;DHT22;4044;49.814;7.828;2022-07-21T09:15:59;25.10;99.90
7998;DHT22;4044;49.814;7.828;2022-07-21T09:18:25;25.00;99.30
7998;DHT22;4044;49.814;7.828;2022-07-21T09:20:52;25.20;99.40
7998;DHT22;4044;49.814;7.828;2022-07-21T09:23:21;25.20;98.20
7998;DHT22;4044;49.814;7.828;2022-07-21T09:25:49;25.30;98.50
7998;DHT22;4044;49.814;7.828;2022-07-21T09:30:54;25.90;95.80
7998;DHT22;4044;49.814;7.828;2022-07-21T09:33:21;25.80;94.20
7998;DHT22;4044;49.814;7.828;2022-07-21T09:36:08;25.80;95.20
7998;DHT22;4044;49.814;7.828;2022-07-21T09:38:51;25.90;94.70
7998;DHT22;4044;49.814;7.828;2022-07-21T09:41:20;26.00;94.20
7998;DHT22;4044;49.814;7.828;2022-07-21T09:43:54;26.00;93.30
7998;DHT22;4044;49.814;7.828;2022-07-21T09:46:20;26.20;93.70
7998;DHT22;4044;49.814;7.828;2022-07-21T09:48:49;26.50;93.80
7998;DHT22;4044;49.814;7.828;2022-07-21T09:51:30;27.20;92.40
7998;DHT22;4044;49.814;7.828;2022-07-21T09:54:07;27.70;91.50
7998;DHT22;4044;49.814;7.828;2022-07-21T09:56:35;27.40;89.70
7998;DHT22;4044;49.814;7.828;2022-07-21T09:59:03;27.10;90.20
7998;DHT22;4044;49.814;7.828;2022-07-21T10:01:29;27.50;90.60
7998;DHT22;4044;49.814;7.828;2022-07-21T10:03:57;27.70;86.40
7998;DHT22;4044;49.814;7.828;2022-07-21T10:06:26;27.90;85.80
7998;DHT22;4044;49.814;7.828;2022-07-21T10:08:55;28.00;85.40
7998;DHT22;4044;49.814;7.828;2022-07-21T10:11:21;28.30;85.80
7998;DHT22;4044;49.814;7.828;2022-07-21T10:13:48;28.30;85.50
7998;DHT22;4044;49.814;7.828;2022-07-21T10:16:14;28.10;84.40
7998;DHT22;4044;49.814;7.828;2022-07-21T10:18:59;27.70;84.60
7998;DHT22;4044;49.814;7.828;2022-07-21T10:21:50;27.80;81.50
7998;DHT22;4044;49.814;7.828;2022-07-21T10:24:16;27.80;81.90
7998;DHT22;4044;49.814;7.828;2022-07-21T10:27:08;27.90;81.50
7998;DHT22;4044;49.814;7.828;2022-07-21T10:29:54;27.60;81.40
7998;DHT22;4044;49.814;7.828;2022-07-21T10:32:23;27.50;78.70
7998;DHT22;4044;49.814;7.828;2022-07-21T10:34:51;27.40;78.50
7998;DHT22;4044;49.814;7.828;2022-07-21T10:40:50;27.40;78.60
7998;DHT22;4044;49.814;7.828;2022-07-21T10:45:38;27.70;78.30
7998;DHT22;4044;49.814;7.828;2022-07-21T10:48:06;27.60;77.50
7998;DHT22;4044;49.814;7.828;2022-07-21T10:50:41;27.80;79.70
7998;DHT22;4044;49.814;7.828;2022-07-21T10:53:15;28.20;76.10
7998;DHT22;4044;49.814;7.828;2022-07-21T10:55:49;28.40;74.60
7998;DHT22;4044;49.814;7.828;2022-07-21T10:58:36;28.60;73.70
7998;DHT22;4044;49.814;7.828;2022-07-21T11:01:08;27.90;72.40
7998;DHT22;4044;49.814;7.828;2022-07-21T11:03:44;28.00;74.40
7998;DHT22;4044;49.814;7.828;2022-07-21T11:06:24;28.30;73.60
7998;DHT22;4044;49.814;7.828;2022-07-21T11:09:07;28.80;75.30
7998;DHT22;4044;49.814;7.828;2022-07-21T11:11:59;29.30;69.00
7998;DHT22;4044;49.814;7.828;2022-07-21T11:14:39;29.40;68.90
7998;DHT22;4044;49.814;7.828;2022-07-21T11:17:06;29.50;69.20
7998;DHT22;4044;49.814;7.828;2022-07-21T11:19:44;29.60;68.70
7998;DHT22;4044;49.814;7.828;2022-07-21T11:22:28;29.90;68.10
7998;DHT22;4044;49.814;7.828;2022-07-21T11:27:21;29.80;65.80
7998;DHT22;4044;49.814;7.828;2022-07-21T11:29:49;29.60;65.10
7998;DHT22;4044;49.814;7.828;2022-07-21T11:32:16;29.20;66.80
7998;DHT22;4044;49.814;7.828;2022-07-21T11:37:16;29.00;65.70
7998;DHT22;4044;49.814;7.828;2022-07-21T11:39:42;29.30;66.90
7998;DHT22;4044;49.814;7.828;2022-07-21T11:42:13;29.50;66.00
7998;DHT22;4044;49.814;7.828;2022-07-21T11:44:41;29.10;64.70
7998;DHT22;4044;49.814;7.828;2022-07-21T11:47:09;29.30;62.50
7998;DHT22;4044;49.814;7.828;2022-07-21T11:49:35;29.30;63.60
7998;DHT22;4044;49.814;7.828;2022-07-21T11:52:07;29.30;63.30
7998;DHT22;4044;49.814;7.828;2022-07-21T11:54:52;29.00;64.30
7998;DHT22;4044;49.814;7.828;2022-07-21T11:57:19;29.10;64.20
7998;DHT22;4044;49.814;7.828;2022-07-21T11:59:46;29.30;65.90
7998;DHT22;4044;49.814;7.828;2022-07-21T12:02:17;30.00;64.60
7998;DHT22;4044;49.814;7.828;2022-07-21T12:04:54;31.40;62.10
7998;DHT22;4044;49.814;7.828;2022-07-21T12:07:29;32.20;59.90
7998;DHT22;4044;49.814;7.828;2022-07-21T12:10:02;33.50;58.50
7998;DHT22;4044;49.814;7.828;2022-07-21T12:12:37;34.20;56.60
7998;DHT22;4044;49.814;7.828;2022-07-21T12:17:53;32.00;57.90
7998;DHT22;4044;49.814;7.828;2022-07-21T12:22:56;32.80;57.10
7998;DHT22;4044;49.814;7.828;2022-07-21T12:25:38;33.60;55.10
7998;DHT22;4044;49.814;7.828;2022-07-21T12:28:05;34.80;55.20
7998;DHT22;4044;49.814;7.828;2022-07-21T12:30:40;35.00;53.10
7998;DHT22;4044;49.814;7.828;2022-07-21T12:33:12;34.90;51.60
7998;DHT22;4044;49.814;7.828;2022-07-21T12:35:41;35.80;54.10
7998;DHT22;4044;49.814;7.828;2022-07-21T12:38:15;36.00;51.40
7998;DHT22;4044;49.814;7.828;2022-07-21T12:40:44;36.50;51.80
7998;DHT22;4044;49.814;7.828;2022-07-21T12:43:20;37.00;48.90
7998;DHT22;4044;49.814;7.828;2022-07-21T12:45:51;37.30;48.60
7998;DHT22;4044;49.814;7.828;2022-07-21T12:48:28;38.00;48.90
7998;DHT22;4044;49.814;7.828;2022-07-21T12:51:13;38.20;47.50
7998;DHT22;4044;49.814;7.828;2022-07-21T12:53:48;37.90;46.90
7998;DHT22;4044;49.814;7.828;2022-07-21T12:56:19;38.30;46.20
7998;DHT22;4044;49.814;7.828;2022-07-21T12:58:46;38.00;46.80
7998;DHT22;4044;49.814;7.828;2022-07-21T13:01:12;37.60;45.10
7998;DHT22;4044;49.814;7.828;2022-07-21T13:03:38;36.60;46.10
7998;DHT22;4044;49.814;7.828;2022-07-21T13:06:05;37.30;46.20
7998;DHT22;4044;49.814;7.828;2022-07-21T13:08:32;37.70;45.70
7998;DHT22;4044;49.814;7.828;2022-07-21T13:10:58;38.30;45.70
7998;DHT22;4044;49.814;7.828;2022-07-21T13:13:24;38.20;44.80
7998;DHT22;4044;49.814;7.828;2022-07-21T13:15:50;38.00;45.50
7998;DHT22;4044;49.814;7.828;2022-07-21T13:18:15;38.10;44.70
7998;DHT22;4044;49.814;7.828;2022-07-21T13:20:41;38.90;44.40
7998;DHT22;4044;49.814;7.828;2022-07-21T13:23:07;38.90;44.20
7998;DHT22;4044;49.814;7.828;2022-07-21T13:25:34;38.30;44.30
7998;DHT22;4044;49.814;7.828;2022-07-21T13:28:00;38.40;45.70
7998;DHT22;4044;49.814;7.828;2022-07-21T13:30:26;38.20;42.90
7998;DHT22;4044;49.814;7.828;2022-07-21T13:32:51;36.90;45.00
7998;DHT22;4044;49.814;7.828;2022-07-21T13:35:17;36.40;45.30
7998;DHT22;4044;49.814;7.828;2022-07-21T13:37:42;35.60;47.20
7998;DHT22;4044;49.814;7.828;2022-07-21T13:40:08;35.10;48.50
7998;DHT22;4044;49.814;7.828;2022-07-21T13:42:34;33.70;47.90
7998;DHT22;4044;49.814;7.828;2022-07-21T13:45:00;32.80;49.90
7998;DHT22;4044;49.814;7.828;2022-07-21T13:47:25;32.30;51.40
7998;DHT22;4044;49.814;7.828;2022-07-21T13:49:51;31.70;52.00
7998;DHT22;4044;49.814;7.828;2022-07-21T13:52:16;32.80;52.40
7998;DHT22;4044;49.814;7.828;2022-07-21T13:54:42;34.40;50.50
7998;DHT22;4044;49.814;7.828;2022-07-21T13:57:07;35.60;49.20
7998;DHT22;4044;49.814;7.828;2022-07-21T13:59:33;36.20;47.40
7998;DHT22;4044;49.814;7.828;2022-07-21T14:01:58;36.50;47.30
7998;DHT22;4044;49.814;7.828;2022-07-21T14:04:24;37.70;46.40
7998;DHT22;4044;49.814;7.828;2022-07-21T14:06:50;38.10;43.90
7998;DHT22;4044;49.814;7.828;2022-07-21T14:09:16;38.40;43.20
7998;DHT22;4044;49.814;7.828;2022-07-21T14:11:42;38.40;42.50
7998;DHT22;4044;49.814;7.828;2022-07-21T14:14:08;38.90;42.40
7998;DHT22;4044;49.814;7.828;2022-07-21T14:16:34;39.00;41.50
7998;DHT22;4044;49.814;7.828;2022-07-21T14:19:00;38.80;41.70
7998;DHT22;4044;49.814;7.828;2022-07-21T14:21:26;38.60;41.90
7998;DHT22;4044;49.814;7.828;2022-07-21T14:23:51;39.20;41.70
7998;DHT22;4044;49.814;7.828;2022-07-21T14:26:37;39.30;40.60
7998;DHT22;4044;49.814;7.828;2022-07-21T14:29:06;39.70;41.60
7998;DHT22;4044;49.814;7.828;2022-07-21T14:31:32;40.30;41.50
7998;DHT22;4044;49.814;7.828;2022-07-21T14:33:57;39.70;39.90
7998;DHT22;4044;49.814;7.828;2022-07-21T14:36:23;40.40;39.80
7998;DHT22;4044;49.814;7.828;2022-07-21T14:38:48;40.30;40.30
7998;DHT22;4044;49.814;7.828;2022-07-21T14:41:14;40.10;39.50
7998;DHT22;4044;49.814;7.828;2022-07-21T14:43:39;38.80;41.40
7998;DHT22;4044;49.814;7.828;2022-07-21T14:46:05;39.00;42.20
7998;DHT22;4044;49.814;7.828;2022-07-21T14:48:31;38.70;40.40
7998;DHT22;4044;49.814;7.828;2022-07-21T14:50:56;38.40;41.00
7998;DHT22;4044;49.814;7.828;2022-07-21T14:53:22;39.40;40.80
7998;DHT22;4044;49.814;7.828;2022-07-21T14:55:47;39.30;39.90
7998;DHT22;4044;49.814;7.828;2022-07-21T14:58:13;37.70;41.60
7998;DHT22;4044;49.814;7.828;2022-07-21T15:00:39;37.90;42.50
7998;DHT22;4044;49.814;7.828;2022-07-21T15:03:04;38.10;43.00
7998;DHT22;4044;49.814;7.828;2022-07-21T15:05:30;38.40;41.90
7998;DHT22;4044;49.814;7.828;2022-07-21T15:07:55;36.60;42.90
7998;DHT22;4044;49.814;7.828;2022-07-21T15:10:21;35.90;44.40
7998;DHT22;4044;49.814;7.828;2022-07-21T15:12:46;35.10;45.70
7998;DHT22;4044;49.814;7.828;2022-07-21T15:15:12;34.40;46.70
7998;DHT22;4044;49.814;7.828;2022-07-21T15:17:38;33.80;47.80
7998;DHT22;4044;49.814;7.828;2022-07-21T15:20:04;32.80;49.20
7998;DHT22;4044;49.814;7.828;2022-07-21T15:22:30;31.90;50.00
7998;DHT22;4044;49.814;7.828;2022-07-21T15:24:57;31.50;50.90
7998;DHT22;4044;49.814;7.828;2022-07-21T15:27:24;31.40;51.40
7998;DHT22;4044;49.814;7.828;2022-07-21T15:29:49;31.20;51.90
7998;DHT22;4044;49.814;7.828;2022-07-21T15:32:15;30.80;52.60
7998;DHT22;4044;49.814;7.828;2022-07-21T15:34:41;30.80;52.60
7998;DHT22;4044;49.814;7.828;2022-07-21T15:37:06;30.90;52.90
7998;DHT22;4044;49.814;7.828;2022-07-21T15:39:32;31.30;52.70
7998;DHT22;4044;49.814;7.828;2022-07-21T15:41:58;32.80;50.70
7998;DHT22;4044;49.814;7.828;2022-07-21T15:44:24;34.90;48.00
7998;DHT22;4044;49.814;7.828;2022-07-21T15:46:50;36.80;45.60
7998;DHT22;4044;49.814;7.828;2022-07-21T15:49:16;37.70;43.50
7998;DHT22;4044;49.814;7.828;2022-07-21T15:51:45;38.40;42.30
7998;DHT22;4044;49.814;7.828;2022-07-21T15:54:10;38.00;42.40
7998;DHT22;4044;49.814;7.828;2022-07-21T15:56:36;38.70;41.40
7998;DHT22;4044;49.814;7.828;2022-07-21T15:59:02;39.30;41.70
7998;DHT22;4044;49.814;7.828;2022-07-21T16:01:46;39.30;40.60
7998;DHT22;4044;49.814;7.828;2022-07-21T16:04:11;39.70;40.70
7998;DHT22;4044;49.814;7.828;2022-07-21T16:06:37;39.80;40.20
7998;DHT22;4044;49.814;7.828;2022-07-21T16:09:03;39.90;39.30
7998;DHT22;4044;49.814;7.828;2022-07-21T16:11:30;40.00;39.10
7998;DHT22;4044;49.814;7.828;2022-07-21T16:13:55;38.70;40.20
7998;DHT22;4044;49.814;7.828;2022-07-21T16:16:21;36.90;42.40
7998;DHT22;4044;49.814;7.828;2022-07-21T16:18:47;36.90;42.70
7998;DHT22;4044;49.814;7.828;2022-07-21T16:21:12;37.90;41.50
7998;DHT22;4044;49.814;7.828;2022-07-21T16:23:38;37.90;40.70